sensor_id;sensor_type;location;lat;lon;timestamp;temperature;humidity
35563;DHT22;21665;40.108;18.302;2023-02-15T00:02:04;6.60;99.90
35563;DHT22;21665;40.108;18.302;2023-02-15T00:04:31;6.70;99.90
35563;DHT22;21665;40.108;18.302;2023-02-15T00:07:14;6.70;99.90
35563;DHT22;21665;40.108;18.302;2023-02-15T00:09:42;6.70;99.90
35563;DHT22;21665;40.108;18.302;2023-02-15T00:12:09;6.60;99.90
35563;DHT22;21665;40.108;18.302;2023-02-15T00:14:36;6.60;99.90
35563;DHT22;21665;40.108;18.302;2023-02-15T00:17:02;6.60;99.90
35563;DHT22;21665;40.108;18.302;2023-02-15T00:19:28;6.60;99.90
35563;DHT22;21665;40.108;18.302;2023-02-15T00:21:55;6.50;99.90
35563;DHT22;21665;40.108;18.302;2023-02-15T00:24:22;6.50;99.90
35563;DHT22;21665;40.108;18.302;2023-02-15T00:26:48;6.40;99.90
35563;DHT22;21665;40.108;18.302;2023-02-15T00:29:25;6.40;99.90
35563;DHT22;21665;40.108;18.302;2023-02-15T00:31:52;6.40;99.90
35563;DHT22;21665;40.108;18.302;2023-02-15T00:34:22;6.40;99.90
35563;DHT22;21665;40.108;18.302;2023-02-15T00:36:49;6.30;99.90
35563;DHT22;21665;40.108;18.302;2023-02-15T00:39:16;6.30;99.90
35563;DHT22;21665;40.108;18.302;2023-02-15T00:41:44;6.30;99.90
35563;DHT22;21665;40.108;18.302;2023-02-15T00:44:11;6.20;99.90
35563;DHT22;21665;40.108;18.302;2023-02-15T00:46:38;6.20;99.90
35563;DHT22;21665;40.108;18.302;2023-02-15T00:49:05;6.20;99.90
35563;DHT22;21665;40.108;18.302;2023-02-15T00:51:32;6.20;99.90
35563;DHT22;21665;40.108;18.302;2023-02-15T00:53:59;6.20;99.90
35563;DHT22;21665;40.108;18.302;2023-02-15T00:56:27;6.20;99.90
35563;DHT22;21665;40.108;18.302;2023-02-15T00:58:57;6.20;99.90
35563;DHT22;21665;40.108;18.302;2023-02-15T01:01:23;6.20;99.90
35563;DHT22;21665;40.108;18.302;2023-02-15T01:03:54;6.20;99.90
35563;DHT22;21665;40.108;18.302;2023-02-15T01:06:21;6.20;99.90
35563;DHT22;21665;40.108;18.302;2023-02-15T01:08:47;6.20;99.90
35563;DHT22;21665;40.108;18.302;2023-02-15T01:11:16;6.20;99.90
35563;DHT22;21665;40.108;18.302;2023-02-15T01:13:52;6.10;99.90
35563;DHT22;21665;40.108;18.302;2023-02-15T01:16:20;6.10;99.90
35563;DHT22;21665;40.108;18.302;2023-02-15T01:18:47;6.20;99.90
35563;DHT22;21665;40.108;18.302;2023-02-15T01:21:17;6.20;99.90
35563;DHT22;21665;40.108;18.302;2023-02-15T01:23:45;6.20;99.90
35563;DHT22;21665;40.108;18.302;2023-02-15T01:26:12;6.20;99.90
35563;DHT22;21665;40.108;18.302;2023-02-15T01:28:39;6.30;99.90
35563;DHT22;21665;40.108;18.302;2023-02-15T01:31:10;6.30;99.90
35563;DHT22;21665;40.108;18.302;2023-02-15T01:33:37;6.40;99.90
35563;DHT22;21665;40.108;18.302;2023-02-15T01:36:05;6.40;99.90
35563;DHT22;21665;40.108;18.302;2023-02-15T01:38:32;6.50;99.90
35563;DHT22;21665;40.108;18.302;2023-02-15T01:40:58;6.50;99.90
35563;DHT22;21665;40.108;18.302;2023-02-15T01:43:51;6.50;99.90
35563;DHT22;21665;40.108;18.302;2023-02-15T01:46:25;6.60;99.90
35563;DHT22;21665;40.108;18.302;2023-02-15T01:48:57;6.60;99.90
35563;DHT22;21665;40.108;18.302;2023-02-15T01:51:31;6.50;99.90
35563;DHT22;21665;40.108;18.302;2023-02-15T01:54:04;6.60;99.90
35563;DHT22;21665;40.108;18.302;2023-02-15T01:56:38;6.60;99.90
35563;DHT22;21665;40.108;18.302;2023-02-15T01:59:12;6.60;99.90
35563;DHT22;21665;40.108;18.302;2023-02-15T02:01:48;6.60;99.90
35563;DHT22;21665;40.108;18.302;2023-02-15T02:04:59;6.60;99.90
35563;DHT22;21665;40.108;18.302;2023-02-15T02:07:34;6.70;99.90
35563;DHT22;21665;40.108;18.302;2023-02-15T02:10:02;6.70;99.90
35563;DHT22;21665;40.108;18.302;2023-02-15T02:12:34;6.70;99.90
35563;DHT22;21665;40.108;18.302;2023-02-15T02:15:01;6.80;99.90
35563;DHT22;21665;40.108;18.302;2023-02-15T02:43:48;6.90;99.90
35563;DHT22;21665;40.108;18.302;2023-02-15T02:49:16;6.90;99.90
35563;DHT22;21665;40.108;18.302;2023-02-15T02:51:45;6.90;99.90
35563;DHT22;21665;40.108;18.302;2023-02-15T02:54:12;6.90;99.90
35563;DHT22;21665;40.108;18.302;2023-02-15T02:56:47;7.00;99.90
35563;DHT22;21665;40.108;18.302;2023-02-15T02:59:24;7.00;99.90
35563;DHT22;21665;40.108;18.302;2023-02-15T03:02:09;7.00;99.90
35563;DHT22;21665;40.108;18.302;2023-02-15T03:04:41;7.00;99.90
35563;DHT22;21665;40.108;18.302;2023-02-15T03:07:20;7.10;99.90
35563;DHT22;21665;40.108;18.302;2023-02-15T03:09:51;7.10;99.90
35563;DHT22;21665;40.108;18.302;2023-02-15T03:12:24;7.20;99.90
35563;DHT22;21665;40.108;18.302;2023-02-15T03:15:09;7.20;99.90
35563;DHT22;21665;40.108;18.302;2023-02-15T03:17:47;7.30;99.90
35563;DHT22;21665;40.108;18.302;2023-02-15T03:20:28;7.30;99.90
35563;DHT22;21665;40.108;18.302;2023-02-15T03:23:06;7.30;99.90
35563;DHT22;21665;40.108;18.302;2023-02-15T03:25:38;7.30;99.90
35563;DHT22;21665;40.108;18.302;2023-02-15T03:28:19;7.40;99.90
35563;DHT22;21665;40.108;18.302;2023-02-15T03:30:51;7.40;99.90
35563;DHT22;21665;40.108;18.302;2023-02-15T03:33:20;7.50;99.90
35563;DHT22;21665;40.108;18.302;2023-02-15T03:36:21;7.60;99.90
35563;DHT22;21665;40.108;18.302;2023-02-15T03:42:07;7.60;99.90
35563;DHT22;21665;40.108;18.302;2023-02-15T03:47:29;7.70;99.90
35563;DHT22;21665;40.108;18.302;2023-02-15T03:50:13;7.60;99.90
35563;DHT22;21665;40.108;18.302;2023-02-15T03:53:09;7.60;99.90
35563;DHT22;21665;40.108;18.302;2023-02-15T03:55:37;7.60;99.90
35563;DHT22;21665;40.108;18.302;2023-02-15T03:58:04;7.50;99.90
35563;DHT22;21665;40.108;18.302;2023-02-15T04:01:00;7.50;99.90
35563;DHT22;21665;40.108;18.302;2023-02-15T04:04:06;7.60;99.90
35563;DHT22;21665;40.108;18.302;2023-02-15T04:06:34;7.50;99.90
35563;DHT22;21665;40.108;18.302;2023-02-15T04:09:03;7.60;99.90
35563;DHT22;21665;40.108;18.302;2023-02-15T04:11:48;7.60;99.90
35563;DHT22;21665;40.108;18.302;2023-02-15T04:14:15;7.60;99.90
35563;DHT22;21665;40.108;18.302;2023-02-15T04:17:00;7.60;99.90
35563;DHT22;21665;40.108;18.302;2023-02-15T04:19:27;7.60;99.90
35563;DHT22;21665;40.108;18.302;2023-02-15T04:22:12;7.50;99.90
35563;DHT22;21665;40.108;18.302;2023-02-15T04:24:57;7.50;99.90
35563;DHT22;21665;40.108;18.302;2023-02-15T04:27:49;7.50;99.90
35563;DHT22;21665;40.108;18.302;2023-02-15T04:30:19;7.40;99.90
35563;DHT22;21665;40.108;18.302;2023-02-15T04:32:46;7.50;99.90
35563;DHT22;21665;40.108;18.302;2023-02-15T04:35:14;7.60;99.90
35563;DHT22;21665;40.108;18.302;2023-02-15T04:37:41;7.50;99.90
35563;DHT22;21665;40.108;18.302;2023-02-15T04:40:12;7.60;99.90
35563;DHT22;21665;40.108;18.302;2023-02-15T04:42:39;7.60;99.90
35563;DHT22;21665;40.108;18.302;2023-02-15T04:45:06;7.60;99.90
35563;DHT22;21665;40.108;18.302;2023-02-15T04:47:36;7.50;99.90
35563;DHT22;21665;40.108;18.302;2023-02-15T04:50:03;7.50;99.90
35563;DHT22;21665;40.108;18.302;2023-02-15T04:52:30;7.40;99.90
35563;DHT22;21665;40.108;18.302;2023-02-15T04:55:03;7.40;99.90
35563;DHT22;21665;40.108;18.302;2023-02-15T04:57:29;7.40;99.90
35563;DHT22;21665;40.108;18.302;2023-02-15T04:59:59;7.40;99.90
35563;DHT22;21665;40.108;18.302;2023-02-15T05:02:25;7.40;99.90
35563;DHT22;21665;40.108;18.302;2023-02-15T05:04:52;7.40;99.90
35563;DHT22;21665;40.108;18.302;2023-02-15T05:07:19;7.50;99.90
35563;DHT22;21665;40.108;18.302;2023-02-15T05:09:46;7.50;99.90
35563;DHT22;21665;40.108;18.302;2023-02-15T05:12:13;7.60;99.90
35563;DHT22;21665;40.108;18.302;2023-02-15T05:14:39;7.60;99.90
35563;DHT22;21665;40.108;18.302;2023-02-15T05:17:06;7.60;99.90
35563;DHT22;21665;40.108;18.302;2023-02-15T05:19:33;7.60;99.90
35563;DHT22;21665;40.108;18.302;2023-02-15T05:21:59;7.60;99.90
35563;DHT22;21665;40.108;18.302;2023-02-15T05:24:26;7.60;99.90
35563;DHT22;21665;40.108;18.302;2023-02-15T05:27:12;7.60;99.90
35563;DHT22;21665;40.108;18.302;2023-02-15T05:29:57;7.60;99.90
35563;DHT22;21665;40.108;18.302;2023-02-15T05:32:23;7.60;99.90
35563;DHT22;21665;40.108;18.302;2023-02-15T05:34:50;7.50;99.90
35563;DHT22;21665;40.108;18.302;2023-02-15T05:37:18;7.50;99.90
35563;DHT22;21665;40.108;18.302;2023-02-15T05:39:45;7.50;99.90
35563;DHT22;21665;40.108;18.302;2023-02-15T05:42:11;7.40;99.90
35563;DHT22;21665;40.108;18.302;2023-02-15T05:44:38;7.40;99.90
35563;DHT22;21665;40.108;18.302;2023-02-15T05:47:04;7.40;99.90
35563;DHT22;21665;40.108;18.302;2023-02-15T05:49:33;7.40;99.90
35563;DHT22;21665;40.108;18.302;2023-02-15T05:52:00;7.40;99.90
35563;DHT22;21665;40.108;18.302;2023-02-15T05:54:27;7.30;99.90
35563;DHT22;21665;40.108;18.302;2023-02-15T05:56:54;7.30;99.90
35563;DHT22;21665;40.108;18.302;2023-02-15T05:59:21;7.30;99.90
35563;DHT22;21665;40.108;18.302;2023-02-15T06:01:49;7.40;99.90
35563;DHT22;21665;40.108;18.302;2023-02-15T06:04:18;7.40;99.90
35563;DHT22;21665;40.108;18.302;2023-02-15T06:06:48;7.40;99.90
35563;DHT22;21665;40.108;18.302;2023-02-15T06:09:14;7.40;99.90
35563;DHT22;21665;40.108;18.302;2023-02-15T06:11:45;7.50;99.90
35563;DHT22;21665;40.108;18.302;2023-02-15T06:14:11;7.50;99.90
35563;DHT22;21665;40.108;18.302;2023-02-15T06:16:38;7.60;99.90
35563;DHT22;21665;40.108;18.302;2023-02-15T06:19:04;7.60;99.90
35563;DHT22;21665;40.108;18.302;2023-02-15T06:21:31;7.70;99.90
35563;DHT22;21665;40.108;18.302;2023-02-15T06:23:58;7.90;99.90
35563;DHT22;21665;40.108;18.302;2023-02-15T06:26:24;7.90;99.90
35563;DHT22;21665;40.108;18.302;2023-02-15T06:28:51;8.00;99.90
35563;DHT22;21665;40.108;18.302;2023-02-15T06:31:18;8.00;99.90
35563;DHT22;21665;40.108;18.302;2023-02-15T06:33:44;8.10;99.90
35563;DHT22;21665;40.108;18.302;2023-02-15T06:36:11;8.30;99.90
35563;DHT22;21665;40.108;18.302;2023-02-15T06:38:38;8.40;99.90
35563;DHT22;21665;40.108;18.302;2023-02-15T06:41:05;8.80;99.90
35563;DHT22;21665;40.108;18.302;2023-02-15T06:43:32;9.10;99.90
35563;DHT22;21665;40.108;18.302;2023-02-15T06:46:00;9.40;99.90
35563;DHT22;21665;40.108;18.302;2023-02-15T06:48:27;9.70;99.90
35563;DHT22;21665;40.108;18.302;2023-02-15T06:50:53;10.00;99.90
35563;DHT22;21665;40.108;18.302;2023-02-15T06:53:20;10.20;99.90
35563;DHT22;21665;40.108;18.302;2023-02-15T06:55:47;10.20;99.90
35563;DHT22;21665;40.108;18.302;2023-02-15T06:58:13;10.10;99.90
35563;DHT22;21665;40.108;18.302;2023-02-15T07:00:40;10.00;99.90
35563;DHT22;21665;40.108;18.302;2023-02-15T07:03:07;9.90;99.90
35563;DHT22;21665;40.108;18.302;2023-02-15T07:05:34;9.70;99.90
35563;DHT22;21665;40.108;18.302;2023-02-15T07:08:01;9.60;99.90
35563;DHT22;21665;40.108;18.302;2023-02-15T07:10:28;9.60;99.90
35563;DHT22;21665;40.108;18.302;2023-02-15T07:12:54;9.70;99.90
35563;DHT22;21665;40.108;18.302;2023-02-15T07:15:21;9.70;99.90
35563;DHT22;21665;40.108;18.302;2023-02-15T07:17:48;9.70;99.90
35563;DHT22;21665;40.108;18.302;2023-02-15T07:20:24;9.70;99.90
35563;DHT22;21665;40.108;18.302;2023-02-15T07:22:51;9.80;99.90
35563;DHT22;21665;40.108;18.302;2023-02-15T07:25:18;9.90;99.90
35563;DHT22;21665;40.108;18.302;2023-02-15T07:27:44;10.30;99.90
35563;DHT22;21665;40.108;18.302;2023-02-15T07:30:13;10.50;99.90
35563;DHT22;21665;40.108;18.302;2023-02-15T07:32:40;10.70;99.90
35563;DHT22;21665;40.108;18.302;2023-02-15T07:35:27;11.00;99.90
35563;DHT22;21665;40.108;18.302;2023-02-15T07:37:54;11.50;99.90
35563;DHT22;21665;40.108;18.302;2023-02-15T07:40:20;12.00;99.90
35563;DHT22;21665;40.108;18.302;2023-02-15T07:42:50;12.20;99.90
35563;DHT22;21665;40.108;18.302;2023-02-15T07:45:19;12.60;99.90
35563;DHT22;21665;40.108;18.302;2023-02-15T07:47:46;12.90;99.90
35563;DHT22;21665;40.108;18.302;2023-02-15T07:50:12;13.20;99.90
35563;DHT22;21665;40.108;18.302;2023-02-15T07:52:39;13.40;99.90
35563;DHT22;21665;40.108;18.302;2023-02-15T07:55:18;13.50;99.90
35563;DHT22;21665;40.108;18.302;2023-02-15T07:57:46;13.60;99.90
35563;DHT22;21665;40.108;18.302;2023-02-15T08:00:15;13.80;99.90
35563;DHT22;21665;40.108;18.302;2023-02-15T08:02:47;14.20;99.90
35563;DHT22;21665;40.108;18.302;2023-02-15T08:05:17;14.20;99.90
35563;DHT22;21665;40.108;18.302;2023-02-15T08:07:44;14.10;99.90
35563;DHT22;21665;40.108;18.302;2023-02-15T08:10:11;14.00;99.90
35563;DHT22;21665;40.108;18.302;2023-02-15T08:13:00;13.80;99.90
35563;DHT22;21665;40.108;18.302;2023-02-15T08:15:26;13.80;99.90
35563;DHT22;21665;40.108;18.302;2023-02-15T08:17:53;13.70;99.90
35563;DHT22;21665;40.108;18.302;2023-02-15T08:20:19;13.60;99.90
35563;DHT22;21665;40.108;18.302;2023-02-15T08:22:46;13.50;99.90
35563;DHT22;21665;40.108;18.302;2023-02-15T08:25:13;13.30;99.90
35563;DHT22;21665;40.108;18.302;2023-02-15T08:27:40;13.00;99.90
35563;DHT22;21665;40.108;18.302;2023-02-15T08:30:07;12.90;99.90
35563;DHT22;21665;40.108;18.302;2023-02-15T08:32:34;12.90;99.90
35563;DHT22;21665;40.108;18.302;2023-02-15T08:35:00;13.10;99.90
35563;DHT22;21665;40.108;18.302;2023-02-15T08:37:27;13.20;99.90
35563;DHT22;21665;40.108;18.302;2023-02-15T08:39:54;13.30;99.90
35563;DHT22;21665;40.108;18.302;2023-02-15T08:42:20;13.20;99.90
35563;DHT22;21665;40.108;18.302;2023-02-15T08:44:50;13.10;99.90
35563;DHT22;21665;40.108;18.302;2023-02-15T08:47:18;13.20;99.90
35563;DHT22;21665;40.108;18.302;2023-02-15T08:49:44;13.30;99.90
35563;DHT22;21665;40.108;18.302;2023-02-15T08:52:11;13.30;99.90
35563;DHT22;21665;40.108;18.302;2023-02-15T08:54:37;13.50;99.90
35563;DHT22;21665;40.108;18.302;2023-02-15T08:57:04;13.40;99.90
35563;DHT22;21665;40.108;18.302;2023-02-15T08:59:30;13.40;99.90
35563;DHT22;21665;40.108;18.302;2023-02-15T09:02:01;13.60;99.90
35563;DHT22;21665;40.108;18.302;2023-02-15T09:04:28;13.60;99.90
35563;DHT22;21665;40.108;18.302;2023-02-15T09:06:56;13.60;99.90
35563;DHT22;21665;40.108;18.302;2023-02-15T09:09:23;13.60;99.90
35563;DHT22;21665;40.108;18.302;2023-02-15T09:11:50;13.90;99.90
35563;DHT22;21665;40.108;18.302;2023-02-15T09:20:49;14.80;99.90
35563;DHT22;21665;40.108;18.302;2023-02-15T09:23:24;14.40;99.90
35563;DHT22;21665;40.108;18.302;2023-02-15T09:26:18;14.00;99.90
35563;DHT22;21665;40.108;18.302;2023-02-15T09:28:47;14.00;99.90
35563;DHT22;21665;40.108;18.302;2023-02-15T09:31:22;14.30;99.90
35563;DHT22;21665;40.108;18.302;2023-02-15T09:33:51;14.40;99.90
35563;DHT22;21665;40.108;18.302;2023-02-15T09:36:21;14.30;99.90
35563;DHT22;21665;40.108;18.302;2023-02-15T09:38:55;14.30;99.90
35563;DHT22;21665;40.108;18.302;2023-02-15T09:49:53;14.00;99.90
35563;DHT22;21665;40.108;18.302;2023-02-15T09:57:53;15.30;99.90
35563;DHT22;21665;40.108;18.302;2023-02-15T10:03:36;15.10;99.90
35563;DHT22;21665;40.108;18.302;2023-02-15T10:25:30;14.00;99.90
35563;DHT22;21665;40.108;18.302;2023-02-15T10:28:31;14.00;99.90
35563;DHT22;21665;40.108;18.302;2023-02-15T10:34:14;14.90;99.90
35563;DHT22;21665;40.108;18.302;2023-02-15T10:42:47;15.10;99.90
35563;DHT22;21665;40.108;18.302;2023-02-15T10:45:39;15.00;99.90
35563;DHT22;21665;40.108;18.302;2023-02-15T10:51:42;15.00;99.90
35563;DHT22;21665;40.108;18.302;2023-02-15T10:59:24;15.30;99.90
35563;DHT22;21665;40.108;18.302;2023-02-15T11:07:48;15.10;99.90
35563;DHT22;21665;40.108;18.302;2023-02-15T11:10:41;14.90;99.90
35563;DHT22;21665;40.108;18.302;2023-02-15T11:13:13;14.80;99.90
35563;DHT22;21665;40.108;18.302;2023-02-15T11:16:20;14.90;99.90
35563;DHT22;21665;40.108;18.302;2023-02-15T11:19:02;15.20;99.90
35563;DHT22;21665;40.108;18.302;2023-02-15T11:21:43;15.20;99.90
35563;DHT22;21665;40.108;18.302;2023-02-15T11:24:13;15.10;99.90
35563;DHT22;21665;40.108;18.302;2023-02-15T11:27:17;15.20;99.90
35563;DHT22;21665;40.108;18.302;2023-02-15T11:29:41;15.00;99.90
35563;DHT22;21665;40.108;18.302;2023-02-15T11:32:17;15.00;99.90
35563;DHT22;21665;40.108;18.302;2023-02-15T11:34:52;15.10;99.90
35563;DHT22;21665;40.108;18.302;2023-02-15T11:37:27;15.30;99.90
35563;DHT22;21665;40.108;18.302;2023-02-15T11:39:54;15.10;99.90
35563;DHT22;21665;40.108;18.302;2023-02-15T11:42:24;15.20;99.90
35563;DHT22;21665;40.108;18.302;2023-02-15T11:47:21;15.00;99.90
35563;DHT22;21665;40.108;18.302;2023-02-15T11:49:47;15.10;99.90
35563;DHT22;21665;40.108;18.302;2023-02-15T11:52:16;15.00;99.90
35563;DHT22;21665;40.108;18.302;2023-02-15T11:54:46;15.10;99.90
35563;DHT22;21665;40.108;18.302;2023-02-15T11:57:23;15.00;99.90
35563;DHT22;21665;40.108;18.302;2023-02-15T12:03:11;14.90;99.90
35563;DHT22;21665;40.108;18.302;2023-02-15T12:05:42;14.90;99.90
35563;DHT22;21665;40.108;18.302;2023-02-15T12:08:17;15.00;99.90
35563;DHT22;21665;40.108;18.302;2023-02-15T12:11:06;15.00;99.90
35563;DHT22;21665;40.108;18.302;2023-02-15T12:14:00;14.90;99.90
35563;DHT22;21665;40.108;18.302;2023-02-15T12:16:29;14.80;99.90
35563;DHT22;21665;40.108;18.302;2023-02-15T12:19:00;14.80;99.90
35563;DHT22;21665;40.108;18.302;2023-02-15T12:21:33;14.90;99.90
35563;DHT22;21665;40.108;18.302;2023-02-15T12:24:03;14.70;99.90
35563;DHT22;21665;40.108;18.302;2023-02-15T12:26:37;14.60;99.90
35563;DHT22;21665;40.108;18.302;2023-02-15T12:29:15;14.60;99.90
35563;DHT22;21665;40.108;18.302;2023-02-15T12:31:47;14.70;99.90
35563;DHT22;21665;40.108;18.302;2023-02-15T12:34:36;14.80;99.90
35563;DHT22;21665;40.108;18.302;2023-02-15T12:37:21;14.70;99.90
35563;DHT22;21665;40.108;18.302;2023-02-15T12:39:55;14.70;99.90
35563;DHT22;21665;40.108;18.302;2023-02-15T12:42:22;14.70;99.90
35563;DHT22;21665;40.108;18.302;2023-02-15T12:44:57;14.70;99.90
35563;DHT22;21665;40.108;18.302;2023-02-15T12:47:26;14.60;99.90
35563;DHT22;21665;40.108;18.302;2023-02-15T12:50:11;14.60;99.90
35563;DHT22;21665;40.108;18.302;2023-02-15T12:52:48;14.50;99.90
35563;DHT22;21665;40.108;18.302;2023-02-15T12:55:26;14.40;99.90
35563;DHT22;21665;40.108;18.302;2023-02-15T12:58:23;14.40;99.90
35563;DHT22;21665;40.108;18.302;2023-02-15T13:01:11;14.50;99.90
35563;DHT22;21665;40.108;18.302;2023-02-15T13:03:58;14.60;99.90
35563;DHT22;21665;40.108;18.302;2023-02-15T13:06:27;14.50;99.90
35563;DHT22;21665;40.108;18.302;2023-02-15T13:14:47;14.30;99.90
35563;DHT22;21665;40.108;18.302;2023-02-15T13:17:21;14.20;99.90
35563;DHT22;21665;40.108;18.302;2023-02-15T13:19:52;14.20;99.90
35563;DHT22;21665;40.108;18.302;2023-02-15T13:22:27;14.30;99.90
35563;DHT22;21665;40.108;18.302;2023-02-15T13:24:55;14.20;99.90
35563;DHT22;21665;40.108;18.302;2023-02-15T13:27:38;14.00;99.90
35563;DHT22;21665;40.108;18.302;2023-02-15T13:30:33;14.10;99.90
35563;DHT22;21665;40.108;18.302;2023-02-15T13:36:22;14.00;99.90
35563;DHT22;21665;40.108;18.302;2023-02-15T13:41:33;13.90;99.90
35563;DHT22;21665;40.108;18.302;2023-02-15T13:44:13;13.80;99.90
35563;DHT22;21665;40.108;18.302;2023-02-15T13:47:10;13.80;99.90
35563;DHT22;21665;40.108;18.302;2023-02-15T13:52:48;14.00;99.90
35563;DHT22;21665;40.108;18.302;2023-02-15T14:01:15;14.00;99.90
35563;DHT22;21665;40.108;18.302;2023-02-15T14:04:10;14.00;99.90
35563;DHT22;21665;40.108;18.302;2023-02-15T14:15:08;13.80;99.90
35563;DHT22;21665;40.108;18.302;2023-02-15T14:20:56;13.80;99.90
35563;DHT22;21665;40.108;18.302;2023-02-15T14:26:26;13.60;99.90
35563;DHT22;21665;40.108;18.302;2023-02-15T14:32:07;13.50;99.90
35563;DHT22;21665;40.108;18.302;2023-02-15T14:34:51;13.50;99.90
35563;DHT22;21665;40.108;18.302;2023-02-15T14:43:29;13.70;99.90
35563;DHT22;21665;40.108;18.302;2023-02-15T14:48:59;13.70;99.90
35563;DHT22;21665;40.108;18.302;2023-02-15T14:59:55;13.50;99.90
35563;DHT22;21665;40.108;18.302;2023-02-15T15:02:40;13.50;99.90
35563;DHT22;21665;40.108;18.302;2023-02-15T15:05:34;13.50;99.90
35563;DHT22;21665;40.108;18.302;2023-02-15T15:08:04;13.60;99.90
35563;DHT22;21665;40.108;18.302;2023-02-15T15:10:38;13.50;99.90
35563;DHT22;21665;40.108;18.302;2023-02-15T15:16:23;13.50;99.90
35563;DHT22;21665;40.108;18.302;2023-02-15T15:18:46;13.40;99.90
35563;DHT22;21665;40.108;18.302;2023-02-15T15:21:53;13.40;99.90
35563;DHT22;21665;40.108;18.302;2023-02-15T15:35:56;13.20;99.90
35563;DHT22;21665;40.108;18.302;2023-02-15T15:39:01;13.10;99.90
35563;DHT22;21665;40.108;18.302;2023-02-15T15:49:59;12.80;99.90
35563;DHT22;21665;40.108;18.302;2023-02-15T15:52:27;12.70;99.90
35563;DHT22;21665;40.108;18.302;2023-02-15T15:55:05;12.70;99.90
35563;DHT22;21665;40.108;18.302;2023-02-15T15:57:43;12.50;99.90
35563;DHT22;21665;40.108;18.302;2023-02-15T16:00:47;12.50;99.90
35563;DHT22;21665;40.108;18.302;2023-02-15T16:03:24;12.40;99.90
35563;DHT22;21665;40.108;18.302;2023-02-15T16:05:52;12.30;99.90
35563;DHT22;21665;40.108;18.302;2023-02-15T16:08:36;12.30;99.90
35563;DHT22;21665;40.108;18.302;2023-02-15T16:11:15;12.20;99.90
35563;DHT22;21665;40.108;18.302;2023-02-15T16:13:44;12.10;99.90
35563;DHT22;21665;40.108;18.302;2023-02-15T16:16:13;12.00;99.90
35563;DHT22;21665;40.108;18.302;2023-02-15T16:18:40;12.00;99.90
35563;DHT22;21665;40.108;18.302;2023-02-15T16:21:27;12.00;99.90
35563;DHT22;21665;40.108;18.302;2023-02-15T16:26:48;11.80;99.90
35563;DHT22;21665;40.108;18.302;2023-02-15T16:29:31;11.60;99.90
35563;DHT22;21665;40.108;18.302;2023-02-15T16:32:15;11.50;99.90
35563;DHT22;21665;40.108;18.302;2023-02-15T16:35:15;11.40;99.90
35563;DHT22;21665;40.108;18.302;2023-02-15T16:37:43;11.20;99.90
35563;DHT22;21665;40.108;18.302;2023-02-15T16:42:55;11.10;99.90
35563;DHT22;21665;40.108;18.302;2023-02-15T16:45:26;11.10;99.90
35563;DHT22;21665;40.108;18.302;2023-02-15T16:47:57;10.90;99.90
35563;DHT22;21665;40.108;18.302;2023-02-15T16:50:34;10.70;99.90
35563;DHT22;21665;40.108;18.302;2023-02-15T16:53:02;10.40;99.90
35563;DHT22;21665;40.108;18.302;2023-02-15T16:55:39;10.30;99.90
35563;DHT22;21665;40.108;18.302;2023-02-15T16:58:14;10.20;99.90
35563;DHT22;21665;40.108;18.302;2023-02-15T17:00:43;10.00;99.90
35563;DHT22;21665;40.108;18.302;2023-02-15T17:05:42;9.70;99.90
35563;DHT22;21665;40.108;18.302;2023-02-15T17:08:18;9.40;99.90
35563;DHT22;21665;40.108;18.302;2023-02-15T17:11:08;9.50;99.90
35563;DHT22;21665;40.108;18.302;2023-02-15T17:13:38;9.40;99.90
35563;DHT22;21665;40.108;18.302;2023-02-15T17:16:18;9.30;99.90
35563;DHT22;21665;40.108;18.302;2023-02-15T17:18:49;9.20;99.90
35563;DHT22;21665;40.108;18.302;2023-02-15T17:21:30;9.10;99.90
35563;DHT22;21665;40.108;18.302;2023-02-15T17:24:01;9.00;99.90
35563;DHT22;21665;40.108;18.302;2023-02-15T17:26:34;8.90;99.90
35563;DHT22;21665;40.108;18.302;2023-02-15T17:31:49;8.70;99.90
35563;DHT22;21665;40.108;18.302;2023-02-15T17:37:14;8.60;99.90
35563;DHT22;21665;40.108;18.302;2023-02-15T17:39:49;8.50;99.90
35563;DHT22;21665;40.108;18.302;2023-02-15T17:42:16;8.50;99.90
35563;DHT22;21665;40.108;18.302;2023-02-15T17:44:43;8.40;99.90
35563;DHT22;21665;40.108;18.302;2023-02-15T17:47:23;8.40;99.90
35563;DHT22;21665;40.108;18.302;2023-02-15T17:49:53;8.30;99.90
35563;DHT22;21665;40.108;18.302;2023-02-15T17:52:20;8.30;99.90
35563;DHT22;21665;40.108;18.302;2023-02-15T17:54:47;8.30;99.90
35563;DHT22;21665;40.108;18.302;2023-02-15T17:57:32;8.30;99.90
35563;DHT22;21665;40.108;18.302;2023-02-15T17:59:59;8.20;99.90
35563;DHT22;21665;40.108;18.302;2023-02-15T18:02:44;8.20;99.90
35563;DHT22;21665;40.108;18.302;2023-02-15T18:05:30;8.20;99.90
35563;DHT22;21665;40.108;18.302;2023-02-15T18:08:18;8.10;99.90
35563;DHT22;21665;40.108;18.302;2023-02-15T18:11:08;8.00;99.90
35563;DHT22;21665;40.108;18.302;2023-02-15T18:13:56;7.90;99.90
35563;DHT22;21665;40.108;18.302;2023-02-15T18:16:32;7.90;99.90
35563;DHT22;21665;40.108;18.302;2023-02-15T18:19:00;7.90;99.90
35563;DHT22;21665;40.108;18.302;2023-02-15T18:21:28;7.80;99.90
35563;DHT22;21665;40.108;18.302;2023-02-15T18:23:55;7.80;99.90
35563;DHT22;21665;40.108;18.302;2023-02-15T18:26:24;7.80;99.90
35563;DHT22;21665;40.108;18.302;2023-02-15T18:28:51;7.70;99.90
35563;DHT22;21665;40.108;18.302;2023-02-15T18:31:19;7.70;99.90
35563;DHT22;21665;40.108;18.302;2023-02-15T18:33:52;7.60;99.90
35563;DHT22;21665;40.108;18.302;2023-02-15T18:36:23;7.60;99.90
35563;DHT22;21665;40.108;18.302;2023-02-15T18:38:51;7.50;99.90
35563;DHT22;21665;40.108;18.302;2023-02-15T18:41:20;7.50;99.90
35563;DHT22;21665;40.108;18.302;2023-02-15T18:43:49;7.40;99.90
35563;DHT22;21665;40.108;18.302;2023-02-15T18:46:16;7.30;99.90
35563;DHT22;21665;40.108;18.302;2023-02-15T18:48:43;7.30;99.90
35563;DHT22;21665;40.108;18.302;2023-02-15T18:51:22;7.20;99.90
35563;DHT22;21665;40.108;18.302;2023-02-15T18:53:52;7.20;99.90
35563;DHT22;21665;40.108;18.302;2023-02-15T18:56:21;7.20;99.90
35563;DHT22;21665;40.108;18.302;2023-02-15T18:58:48;7.30;99.90
35563;DHT22;21665;40.108;18.302;2023-02-15T19:01:18;7.30;99.90
35563;DHT22;21665;40.108;18.302;2023-02-15T19:03:49;7.40;99.90
35563;DHT22;21665;40.108;18.302;2023-02-15T19:06:19;7.40;99.90
35563;DHT22;21665;40.108;18.302;2023-02-15T19:08:50;7.50;99.90
35563;DHT22;21665;40.108;18.302;2023-02-15T19:11:24;7.60;99.90
35563;DHT22;21665;40.108;18.302;2023-02-15T19:14:03;7.60;99.90
35563;DHT22;21665;40.108;18.302;2023-02-15T19:17:09;7.60;99.90
35563;DHT22;21665;40.108;18.302;2023-02-15T20:04:19;6.50;99.90
35563;DHT22;21665;40.108;18.302;2023-02-15T20:06:47;6.50;99.90